OAL942 LGRP-LGAL
Flight info
| Callsign | OAL942 |
|---|---|
| Flight time | N/A |
| Altitude | 28000 |
| Route | CODIC UL995 KOPAR UH59 LARKI UL609 MES UL618 LMO |
| Aircraft | B738/M-SDE2E3FGHIRWXY/LB1 |
Departure
| Time | N/A |
|---|---|
| Airport | Rhodes International Airport "Diagoras" (LGRP) |
Arrival
| Time | 2026-05-03 20:52 |
|---|---|
| Airport | Alexandroupoli Democritus Airport (LGAL) |
| Time | Latitude | Longitude | Altitude | Speed | Heading |
|---|---|---|---|---|---|
| 2026-05-03 20:15 | 37.72588 | 26.22527 | 27999 ft | 454 kts | 341° |
| 2026-05-03 20:15 | 37.75574 | 26.21224 | 27986 ft | 456 kts | 342° |
| 2026-05-03 20:15 | 37.78595 | 26.19906 | 27988 ft | 455 kts | 341° |
| 2026-05-03 20:15 | 37.81578 | 26.18602 | 27991 ft | 454 kts | 342° |
| 2026-05-03 20:16 | 37.84568 | 26.17295 | 27989 ft | 455 kts | 342° |
| 2026-05-03 20:16 | 37.90520 | 26.14689 | 28005 ft | 455 kts | 342° |
| 2026-05-03 20:17 | 37.96522 | 26.12056 | 28008 ft | 455 kts | 342° |
| 2026-05-03 20:17 | 38.02475 | 26.09441 | 28004 ft | 456 kts | 341° |
| 2026-05-03 20:17 | 38.05479 | 26.08119 | 28000 ft | 456 kts | 341° |
| 2026-05-03 20:18 | 38.08466 | 26.06804 | 27992 ft | 455 kts | 342° |
| 2026-05-03 20:18 | 38.11479 | 26.05476 | 27996 ft | 455 kts | 341° |
| 2026-05-03 20:18 | 38.14436 | 26.04172 | 27999 ft | 455 kts | 341° |
| 2026-05-03 20:18 | 38.17430 | 26.02850 | 27999 ft | 456 kts | 341° |
| 2026-05-03 20:19 | 38.20416 | 26.01531 | 27992 ft | 456 kts | 341° |
| 2026-05-03 20:19 | 38.23414 | 26.00205 | 27993 ft | 456 kts | 341° |
| 2026-05-03 20:19 | 38.26412 | 25.98878 | 27999 ft | 457 kts | 341° |
| 2026-05-03 20:19 | 38.29416 | 25.97547 | 27999 ft | 457 kts | 341° |
| 2026-05-03 20:20 | 38.32422 | 25.96214 | 27995 ft | 457 kts | 341° |
| 2026-05-03 20:20 | 38.35407 | 25.94889 | 27992 ft | 457 kts | 341° |
| 2026-05-03 20:20 | 38.38421 | 25.93551 | 27992 ft | 457 kts | 341° |
| 2026-05-03 20:20 | 38.41425 | 25.92216 | 27997 ft | 458 kts | 341° |
| 2026-05-03 20:21 | 38.44435 | 25.90876 | 27996 ft | 458 kts | 341° |
| 2026-05-03 20:21 | 38.47420 | 25.89547 | 27990 ft | 458 kts | 341° |
| 2026-05-03 20:21 | 38.50445 | 25.88199 | 27986 ft | 458 kts | 341° |
| 2026-05-03 20:21 | 38.53425 | 25.86870 | 27993 ft | 458 kts | 341° |
| 2026-05-03 20:22 | 38.56476 | 25.85509 | 28000 ft | 458 kts | 341° |
| 2026-05-03 20:22 | 38.59464 | 25.84174 | 27997 ft | 458 kts | 341° |
| 2026-05-03 20:22 | 38.62455 | 25.82835 | 28017 ft | 458 kts | 341° |
| 2026-05-03 20:23 | 38.68471 | 25.80141 | 28016 ft | 458 kts | 341° |
| 2026-05-03 20:23 | 38.74507 | 25.77432 | 28039 ft | 460 kts | 341° |
| 2026-05-03 20:24 | 38.80518 | 25.74730 | 28033 ft | 460 kts | 341° |
| 2026-05-03 20:24 | 38.86549 | 25.72013 | 28039 ft | 460 kts | 341° |
| 2026-05-03 20:25 | 38.92588 | 25.69289 | 28041 ft | 460 kts | 341° |
| 2026-05-03 20:25 | 38.98647 | 25.66551 | 28053 ft | 462 kts | 341° |
| 2026-05-03 20:26 | 39.04664 | 25.63826 | 28056 ft | 461 kts | 341° |
| 2026-05-03 20:26 | 39.10737 | 25.61071 | 28055 ft | 462 kts | 341° |
| 2026-05-03 20:27 | 39.16793 | 25.58318 | 28062 ft | 463 kts | 341° |
| 2026-05-03 20:27 | 39.22875 | 25.55550 | 28052 ft | 463 kts | 341° |
| 2026-05-03 20:28 | 39.28965 | 25.52772 | 28063 ft | 465 kts | 341° |
| 2026-05-03 20:28 | 39.35004 | 25.50014 | 28064 ft | 465 kts | 342° |
| 2026-05-03 20:29 | 39.41104 | 25.47221 | 28062 ft | 465 kts | 342° |
| 2026-05-03 20:29 | 39.47202 | 25.44425 | 28071 ft | 467 kts | 342° |
| 2026-05-03 20:30 | 39.53357 | 25.41597 | 28076 ft | 468 kts | 342° |
| 2026-05-03 20:30 | 39.59486 | 25.38776 | 28081 ft | 468 kts | 342° |
| 2026-05-03 20:31 | 39.65620 | 25.35947 | 28078 ft | 468 kts | 342° |
| 2026-05-03 20:31 | 39.71745 | 25.33118 | 28090 ft | 471 kts | 341° |
| 2026-05-03 20:32 | 39.77927 | 25.30256 | 28095 ft | 470 kts | 341° |
| 2026-05-03 20:32 | 39.84119 | 25.27414 | 27236 ft | 474 kts | 342° |
| 2026-05-03 20:32 | 39.87236 | 25.26324 | 26021 ft | 467 kts | 350° |
| 2026-05-03 20:33 | 39.90434 | 25.25978 | 24930 ft | 457 kts | 2° |
| 2026-05-03 20:33 | 39.93501 | 25.26496 | 24081 ft | 444 kts | 13° |
| 2026-05-03 20:33 | 39.96434 | 25.27633 | 23383 ft | 428 kts | 20° |
| 2026-05-03 20:33 | 39.99106 | 25.29060 | 22822 ft | 411 kts | 25° |
| 2026-05-03 20:34 | 40.01610 | 25.30739 | 22294 ft | 395 kts | 29° |
| 2026-05-03 20:34 | 40.03943 | 25.32490 | 21803 ft | 380 kts | 30° |
| 2026-05-03 20:34 | 40.06141 | 25.34216 | 21324 ft | 367 kts | 31° |
| 2026-05-03 20:34 | 40.08289 | 25.35920 | 20848 ft | 353 kts | 31° |
| 2026-05-03 20:35 | 40.10368 | 25.37565 | 20406 ft | 351 kts | 30° |
| 2026-05-03 20:35 | 40.12494 | 25.39235 | 19970 ft | 360 kts | 30° |
| 2026-05-03 20:35 | 40.14631 | 25.40899 | 19406 ft | 360 kts | 30° |
| 2026-05-03 20:35 | 40.16781 | 25.42561 | 18942 ft | 355 kts | 30° |
| 2026-05-03 20:36 | 40.18893 | 25.44189 | 18478 ft | 351 kts | 30° |
| 2026-05-03 20:36 | 40.20970 | 25.45787 | 17998 ft | 348 kts | 29° |
| 2026-05-03 20:36 | 40.23062 | 25.47395 | 17519 ft | 344 kts | 29° |
| 2026-05-03 20:36 | 40.25111 | 25.48967 | 17060 ft | 341 kts | 29° |
| 2026-05-03 20:37 | 40.27119 | 25.50507 | 16597 ft | 337 kts | 29° |
| 2026-05-03 20:37 | 40.29142 | 25.52059 | 16155 ft | 334 kts | 29° |
| 2026-05-03 20:37 | 40.31120 | 25.53577 | 15704 ft | 331 kts | 29° |
| 2026-05-03 20:37 | 40.33111 | 25.55106 | 15230 ft | 328 kts | 29° |
| 2026-05-03 20:38 | 40.35043 | 25.56591 | 14732 ft | 327 kts | 29° |
| 2026-05-03 20:38 | 40.37017 | 25.58109 | 13841 ft | 336 kts | 29° |
| 2026-05-03 20:38 | 40.39066 | 25.59684 | 12893 ft | 346 kts | 29° |
| 2026-05-03 20:38 | 40.41159 | 25.61295 | 11923 ft | 355 kts | 29° |
| 2026-05-03 20:39 | 40.43293 | 25.62939 | 11156 ft | 356 kts | 29° |
| 2026-05-03 20:39 | 40.45399 | 25.64566 | 10785 ft | 345 kts | 29° |
| 2026-05-03 20:39 | 40.47433 | 25.66139 | 10512 ft | 334 kts | 30° |
| 2026-05-03 20:39 | 40.49388 | 25.67653 | 10071 ft | 322 kts | 30° |
| 2026-05-03 20:40 | 40.51282 | 25.69119 | 9576 ft | 309 kts | 30° |
| 2026-05-03 20:40 | 40.53079 | 25.70511 | 9173 ft | 293 kts | 30° |
| 2026-05-03 20:40 | 40.54800 | 25.71846 | 8814 ft | 278 kts | 30° |
| 2026-05-03 20:40 | 40.56420 | 25.73102 | 8475 ft | 265 kts | 30° |
| 2026-05-03 20:41 | 40.57949 | 25.74288 | 8166 ft | 252 kts | 29° |
| 2026-05-03 20:41 | 40.59430 | 25.75438 | 7860 ft | 240 kts | 29° |
| 2026-05-03 20:41 | 40.60825 | 25.76521 | 7603 ft | 226 kts | 29° |
| 2026-05-03 20:41 | 40.62127 | 25.77533 | 7346 ft | 211 kts | 29° |
| 2026-05-03 20:42 | 40.63349 | 25.78440 | 7162 ft | 192 kts | 24° |
| 2026-05-03 20:42 | 40.64599 | 25.78866 | 6887 ft | 183 kts | 0° |
| 2026-05-03 20:42 | 40.65784 | 25.78309 | 6628 ft | 189 kts | 328° |
| 2026-05-03 20:42 | 40.66642 | 25.76959 | 6388 ft | 190 kts | 318° |
| 2026-05-03 20:43 | 40.67473 | 25.75672 | 6163 ft | 181 kts | 323° |
| 2026-05-03 20:43 | 40.68336 | 25.74507 | 5947 ft | 175 kts | 325° |
| 2026-05-03 20:43 | 40.69201 | 25.73417 | 5739 ft | 168 kts | 328° |
| 2026-05-03 20:43 | 40.70063 | 25.72412 | 5563 ft | 165 kts | 330° |
| 2026-05-03 20:44 | 40.70961 | 25.71455 | 5386 ft | 164 kts | 332° |
| 2026-05-03 20:44 | 40.71870 | 25.70568 | 5272 ft | 163 kts | 334° |
| 2026-05-03 20:44 | 40.72809 | 25.69738 | 5152 ft | 162 kts | 336° |
| 2026-05-03 20:44 | 40.73767 | 25.68967 | 5026 ft | 160 kts | 338° |
| 2026-05-03 20:45 | 40.74730 | 25.68269 | 4907 ft | 157 kts | 340° |
| 2026-05-03 20:45 | 40.75654 | 25.67670 | 4788 ft | 144 kts | 343° |
| 2026-05-03 20:45 | 40.76541 | 25.67161 | 4606 ft | 135 kts | 346° |
| 2026-05-03 20:45 | 40.77404 | 25.66721 | 4473 ft | 133 kts | 348° |
| 2026-05-03 20:46 | 40.78302 | 25.66482 | 4329 ft | 128 kts | 13° |
| 2026-05-03 20:46 | 40.79001 | 25.67155 | 4214 ft | 135 kts | 56° |
| 2026-05-03 20:46 | 40.79333 | 25.68348 | 4065 ft | 140 kts | 60° |
| 2026-05-03 20:46 | 40.79675 | 25.69537 | 3843 ft | 137 kts | 60° |
| 2026-05-03 20:47 | 40.80001 | 25.70713 | 3666 ft | 136 kts | 60° |
| 2026-05-03 20:47 | 40.80315 | 25.71903 | 3518 ft | 138 kts | 61° |
| 2026-05-03 20:47 | 40.80608 | 25.73080 | 3380 ft | 135 kts | 62° |
| 2026-05-03 20:47 | 40.80891 | 25.74258 | 3246 ft | 134 kts | 62° |
| 2026-05-03 20:48 | 40.81165 | 25.75432 | 3115 ft | 134 kts | 63° |
| 2026-05-03 20:48 | 40.81433 | 25.76609 | 2997 ft | 133 kts | 63° |
| 2026-05-03 20:48 | 40.81687 | 25.77765 | 3008 ft | 128 kts | 63° |
| 2026-05-03 20:48 | 40.81914 | 25.78896 | 2996 ft | 133 kts | 67° |
| 2026-05-03 20:49 | 40.82080 | 25.80118 | 2536 ft | 139 kts | 70° |
| 2026-05-03 20:49 | 40.82248 | 25.81353 | 2187 ft | 132 kts | 70° |
| 2026-05-03 20:49 | 40.82458 | 25.82517 | 1965 ft | 130 kts | 66° |
| 2026-05-03 20:49 | 40.82688 | 25.83675 | 1861 ft | 132 kts | 67° |
| 2026-05-03 20:50 | 40.82966 | 25.84856 | 1564 ft | 135 kts | 65° |
| 2026-05-03 20:50 | 40.83248 | 25.86033 | 1253 ft | 135 kts | 65° |
| 2026-05-03 20:50 | 40.83569 | 25.87184 | 1094 ft | 136 kts | 65° |
| 2026-05-03 20:50 | 40.83875 | 25.88385 | 959 ft | 138 kts | 66° |
| 2026-05-03 20:51 | 40.84176 | 25.89591 | 777 ft | 140 kts | 69° |
| 2026-05-03 20:51 | 40.84466 | 25.90822 | 569 ft | 141 kts | 69° |
| 2026-05-03 20:51 | 40.84752 | 25.92057 | 399 ft | 141 kts | 69° |
| 2026-05-03 20:51 | 40.85047 | 25.93291 | 182 ft | 145 kts | 72° |
| 2026-05-03 20:52 | 40.85325 | 25.94538 | 13 ft | 135 kts | 72° |
| 2026-05-03 20:52 | 40.85537 | 25.95429 | 14 ft | 65 kts | 72° |
| 2026-05-03 20:52 | 40.85601 | 25.95722 | 16 ft | 0 kts | 76° |
| 2026-05-03 20:53 | 40.85601 | 25.95740 | 17 ft | 7 kts | 102° |
| 2026-05-03 20:53 | 40.85619 | 25.95775 | 17 ft | 8 kts | 256° |
| 2026-05-03 20:53 | 40.85566 | 25.95605 | 16 ft | 30 kts | 251° |
| 2026-05-03 20:53 | 40.85495 | 25.95274 | 14 ft | 45 kts | 254° |
| 2026-05-03 20:54 | 40.85444 | 25.95061 | 13 ft | 28 kts | 256° |
| 2026-05-03 20:54 | 40.85520 | 25.94575 | 15 ft | 20 kts | 257° |
| 2026-05-03 20:54 | 40.85566 | 25.94488 | 16 ft | 14 kts | 46° |
| 2026-05-03 20:55 | 40.85578 | 25.94514 | 16 ft | 0 kts | 65° |